sensor_id;sensor_type;location;lat;lon;timestamp;temperature;humidity
13998;DHT22;7074;51.508;7.018;2023-04-01T00:00:35;11.70;99.90
13998;DHT22;7074;51.508;7.018;2023-04-01T00:03:03;11.70;99.90
13998;DHT22;7074;51.508;7.018;2023-04-01T00:05:30;11.70;99.90
13998;DHT22;7074;51.508;7.018;2023-04-01T00:07:58;11.70;99.90
13998;DHT22;7074;51.508;7.018;2023-04-01T00:10:26;11.80;99.90
13998;DHT22;7074;51.508;7.018;2023-04-01T00:12:55;11.80;99.90
13998;DHT22;7074;51.508;7.018;2023-04-01T00:15:22;11.80;99.90
13998;DHT22;7074;51.508;7.018;2023-04-01T00:17:50;11.70;99.90
13998;DHT22;7074;51.508;7.018;2023-04-01T00:20:17;11.70;99.90
13998;DHT22;7074;51.508;7.018;2023-04-01T00:22:45;11.70;99.90
13998;DHT22;7074;51.508;7.018;2023-04-01T00:25:13;11.70;99.90
13998;DHT22;7074;51.508;7.018;2023-04-01T00:27:42;11.70;99.90
13998;DHT22;7074;51.508;7.018;2023-04-01T00:30:11;11.50;99.90
13998;DHT22;7074;51.508;7.018;2023-04-01T00:32:39;11.60;99.90
13998;DHT22;7074;51.508;7.018;2023-04-01T00:35:07;11.60;99.90
13998;DHT22;7074;51.508;7.018;2023-04-01T00:37:35;11.60;99.90
13998;DHT22;7074;51.508;7.018;2023-04-01T00:40:06;11.70;99.90
13998;DHT22;7074;51.508;7.018;2023-04-01T00:42:34;11.70;99.90
13998;DHT22;7074;51.508;7.018;2023-04-01T00:45:29;11.70;99.90
13998;DHT22;7074;51.508;7.018;2023-04-01T00:47:59;11.80;99.90
13998;DHT22;7074;51.508;7.018;2023-04-01T00:50:27;11.70;99.90
13998;DHT22;7074;51.508;7.018;2023-04-01T00:52:56;11.70;99.90
13998;DHT22;7074;51.508;7.018;2023-04-01T00:55:23;11.70;99.90
13998;DHT22;7074;51.508;7.018;2023-04-01T00:57:53;11.60;99.90
13998;DHT22;7074;51.508;7.018;2023-04-01T01:00:23;11.60;99.90
13998;DHT22;7074;51.508;7.018;2023-04-01T01:02:53;11.60;99.90
13998;DHT22;7074;51.508;7.018;2023-04-01T01:05:32;11.60;99.90
13998;DHT22;7074;51.508;7.018;2023-04-01T01:08:08;11.60;99.90
13998;DHT22;7074;51.508;7.018;2023-04-01T01:10:39;11.60;99.90
13998;DHT22;7074;51.508;7.018;2023-04-01T01:13:11;11.50;99.90
13998;DHT22;7074;51.508;7.018;2023-04-01T01:15:46;11.60;99.90
13998;DHT22;7074;51.508;7.018;2023-04-01T01:18:21;11.50;99.90
13998;DHT22;7074;51.508;7.018;2023-04-01T01:21:25;11.50;99.90
13998;DHT22;7074;51.508;7.018;2023-04-01T01:27:02;11.50;99.90
13998;DHT22;7074;51.508;7.018;2023-04-01T01:29:42;11.50;99.90
13998;DHT22;7074;51.508;7.018;2023-04-01T01:32:25;11.50;99.90
13998;DHT22;7074;51.508;7.018;2023-04-01T01:35:07;11.50;99.90
13998;DHT22;7074;51.508;7.018;2023-04-01T01:37:38;11.50;99.90
13998;DHT22;7074;51.508;7.018;2023-04-01T01:40:09;11.60;99.90
13998;DHT22;7074;51.508;7.018;2023-04-01T01:42:40;11.50;99.90
13998;DHT22;7074;51.508;7.018;2023-04-01T01:45:10;11.50;99.90
13998;DHT22;7074;51.508;7.018;2023-04-01T01:47:40;11.50;99.90
13998;DHT22;7074;51.508;7.018;2023-04-01T01:50:11;11.50;99.90
13998;DHT22;7074;51.508;7.018;2023-04-01T01:52:38;11.50;99.90
13998;DHT22;7074;51.508;7.018;2023-04-01T01:55:23;11.50;99.90
13998;DHT22;7074;51.508;7.018;2023-04-01T01:57:51;11.40;99.90
13998;DHT22;7074;51.508;7.018;2023-04-01T02:00:19;11.50;99.90
13998;DHT22;7074;51.508;7.018;2023-04-01T02:02:49;11.40;99.90
13998;DHT22;7074;51.508;7.018;2023-04-01T02:05:21;11.50;99.90
13998;DHT22;7074;51.508;7.018;2023-04-01T02:07:54;11.40;99.90
13998;DHT22;7074;51.508;7.018;2023-04-01T02:10:25;11.50;99.90
13998;DHT22;7074;51.508;7.018;2023-04-01T02:12:56;11.40;99.90
13998;DHT22;7074;51.508;7.018;2023-04-01T02:15:27;11.50;99.90
13998;DHT22;7074;51.508;7.018;2023-04-01T02:17:57;11.50;99.90
13998;DHT22;7074;51.508;7.018;2023-04-01T02:20:27;11.50;99.90
13998;DHT22;7074;51.508;7.018;2023-04-01T02:22:57;11.50;99.90
13998;DHT22;7074;51.508;7.018;2023-04-01T02:25:28;11.50;99.90
13998;DHT22;7074;51.508;7.018;2023-04-01T02:27:57;11.50;99.90
13998;DHT22;7074;51.508;7.018;2023-04-01T02:30:27;11.40;99.90
13998;DHT22;7074;51.508;7.018;2023-04-01T02:32:56;11.50;99.90
13998;DHT22;7074;51.508;7.018;2023-04-01T02:35:27;11.50;99.90
13998;DHT22;7074;51.508;7.018;2023-04-01T02:37:55;11.50;99.90
13998;DHT22;7074;51.508;7.018;2023-04-01T02:40:22;11.50;99.90
13998;DHT22;7074;51.508;7.018;2023-04-01T02:42:50;11.40;99.90
13998;DHT22;7074;51.508;7.018;2023-04-01T02:45:18;11.40;99.90
13998;DHT22;7074;51.508;7.018;2023-04-01T02:47:46;11.40;99.90
13998;DHT22;7074;51.508;7.018;2023-04-01T02:50:13;11.40;99.90
13998;DHT22;7074;51.508;7.018;2023-04-01T02:52:42;11.40;99.90
13998;DHT22;7074;51.508;7.018;2023-04-01T02:55:10;11.40;99.90
13998;DHT22;7074;51.508;7.018;2023-04-01T02:57:37;11.40;99.90
13998;DHT22;7074;51.508;7.018;2023-04-01T03:00:06;11.30;99.90
13998;DHT22;7074;51.508;7.018;2023-04-01T03:02:37;11.40;99.90
13998;DHT22;7074;51.508;7.018;2023-04-01T03:05:06;11.30;99.90
13998;DHT22;7074;51.508;7.018;2023-04-01T03:07:33;11.40;99.90
13998;DHT22;7074;51.508;7.018;2023-04-01T03:10:04;11.30;99.90
13998;DHT22;7074;51.508;7.018;2023-04-01T03:12:32;11.40;99.90
13998;DHT22;7074;51.508;7.018;2023-04-01T03:15:00;11.40;99.90
13998;DHT22;7074;51.508;7.018;2023-04-01T03:17:27;11.30;99.90
13998;DHT22;7074;51.508;7.018;2023-04-01T03:19:54;11.40;99.90
13998;DHT22;7074;51.508;7.018;2023-04-01T03:22:22;11.40;99.90
13998;DHT22;7074;51.508;7.018;2023-04-01T03:24:50;11.40;99.90
13998;DHT22;7074;51.508;7.018;2023-04-01T03:27:19;11.50;99.90
13998;DHT22;7074;51.508;7.018;2023-04-01T03:29:46;11.50;99.90
13998;DHT22;7074;51.508;7.018;2023-04-01T03:32:14;11.50;99.90
13998;DHT22;7074;51.508;7.018;2023-04-01T03:34:42;11.50;99.90
13998;DHT22;7074;51.508;7.018;2023-04-01T03:37:09;11.50;99.90
13998;DHT22;7074;51.508;7.018;2023-04-01T03:39:37;11.50;99.90
13998;DHT22;7074;51.508;7.018;2023-04-01T03:42:05;11.60;99.90
13998;DHT22;7074;51.508;7.018;2023-04-01T03:44:35;11.60;99.90
13998;DHT22;7074;51.508;7.018;2023-04-01T03:47:03;11.50;99.90
13998;DHT22;7074;51.508;7.018;2023-04-01T03:49:30;11.40;99.90
13998;DHT22;7074;51.508;7.018;2023-04-01T03:51:58;11.40;99.90
13998;DHT22;7074;51.508;7.018;2023-04-01T03:54:25;11.40;99.90
13998;DHT22;7074;51.508;7.018;2023-04-01T03:56:53;11.40;99.90
13998;DHT22;7074;51.508;7.018;2023-04-01T03:59:21;11.40;99.90
13998;DHT22;7074;51.508;7.018;2023-04-01T04:01:51;11.40;99.90
13998;DHT22;7074;51.508;7.018;2023-04-01T04:04:18;11.40;99.90
13998;DHT22;7074;51.508;7.018;2023-04-01T04:06:47;11.40;99.90
13998;DHT22;7074;51.508;7.018;2023-04-01T04:09:16;11.40;99.90
13998;DHT22;7074;51.508;7.018;2023-04-01T04:11:43;11.40;99.90
13998;DHT22;7074;51.508;7.018;2023-04-01T04:14:10;11.40;99.90
13998;DHT22;7074;51.508;7.018;2023-04-01T04:16:38;11.40;99.90
13998;DHT22;7074;51.508;7.018;2023-04-01T04:19:07;11.50;99.90
13998;DHT22;7074;51.508;7.018;2023-04-01T04:21:35;11.40;99.90
13998;DHT22;7074;51.508;7.018;2023-04-01T04:24:03;11.40;99.90
13998;DHT22;7074;51.508;7.018;2023-04-01T04:26:50;11.40;99.90
13998;DHT22;7074;51.508;7.018;2023-04-01T04:29:18;11.40;99.90
13998;DHT22;7074;51.508;7.018;2023-04-01T04:31:46;11.40;99.90
13998;DHT22;7074;51.508;7.018;2023-04-01T04:34:14;11.30;99.90
13998;DHT22;7074;51.508;7.018;2023-04-01T04:36:42;11.30;99.90
13998;DHT22;7074;51.508;7.018;2023-04-01T04:39:10;11.30;99.90
13998;DHT22;7074;51.508;7.018;2023-04-01T04:41:39;11.40;99.90
13998;DHT22;7074;51.508;7.018;2023-04-01T04:44:07;11.40;99.90
13998;DHT22;7074;51.508;7.018;2023-04-01T04:46:34;11.40;99.90
13998;DHT22;7074;51.508;7.018;2023-04-01T04:49:11;11.40;99.90
13998;DHT22;7074;51.508;7.018;2023-04-01T04:51:40;11.40;99.90
13998;DHT22;7074;51.508;7.018;2023-04-01T04:54:08;11.40;99.90
13998;DHT22;7074;51.508;7.018;2023-04-01T04:56:56;11.40;99.90
13998;DHT22;7074;51.508;7.018;2023-04-01T04:59:26;11.40;99.90
13998;DHT22;7074;51.508;7.018;2023-04-01T05:02:02;11.40;99.90
13998;DHT22;7074;51.508;7.018;2023-04-01T05:04:31;11.40;99.90
13998;DHT22;7074;51.508;7.018;2023-04-01T05:07:03;11.40;99.90
13998;DHT22;7074;51.508;7.018;2023-04-01T05:09:33;11.50;99.90
13998;DHT22;7074;51.508;7.018;2023-04-01T05:12:02;11.50;99.90
13998;DHT22;7074;51.508;7.018;2023-04-01T05:14:44;11.50;99.90
13998;DHT22;7074;51.508;7.018;2023-04-01T05:17:12;11.50;99.90
13998;DHT22;7074;51.508;7.018;2023-04-01T05:19:39;11.50;99.90
13998;DHT22;7074;51.508;7.018;2023-04-01T05:22:11;11.60;99.90
13998;DHT22;7074;51.508;7.018;2023-04-01T05:24:40;11.50;99.90
13998;DHT22;7074;51.508;7.018;2023-04-01T05:27:08;11.50;99.90
13998;DHT22;7074;51.508;7.018;2023-04-01T05:30:05;11.60;99.90
13998;DHT22;7074;51.508;7.018;2023-04-01T05:33:08;11.50;99.90
13998;DHT22;7074;51.508;7.018;2023-04-01T05:35:41;11.60;99.90
13998;DHT22;7074;51.508;7.018;2023-04-01T05:38:11;11.60;99.90
13998;DHT22;7074;51.508;7.018;2023-04-01T05:40:39;11.60;99.90
13998;DHT22;7074;51.508;7.018;2023-04-01T05:43:07;11.60;99.90
13998;DHT22;7074;51.508;7.018;2023-04-01T05:45:42;11.50;99.90
13998;DHT22;7074;51.508;7.018;2023-04-01T05:48:35;11.60;99.90
13998;DHT22;7074;51.508;7.018;2023-04-01T05:51:12;11.50;99.90
13998;DHT22;7074;51.508;7.018;2023-04-01T05:53:52;11.60;99.90
13998;DHT22;7074;51.508;7.018;2023-04-01T05:56:30;11.60;99.90
13998;DHT22;7074;51.508;7.018;2023-04-01T05:58:59;11.60;99.90
13998;DHT22;7074;51.508;7.018;2023-04-01T06:01:27;11.60;99.90
13998;DHT22;7074;51.508;7.018;2023-04-01T06:03:54;11.60;99.90
13998;DHT22;7074;51.508;7.018;2023-04-01T06:06:25;11.70;99.90
13998;DHT22;7074;51.508;7.018;2023-04-01T06:09:06;11.60;99.90
13998;DHT22;7074;51.508;7.018;2023-04-01T06:11:39;11.60;99.90
13998;DHT22;7074;51.508;7.018;2023-04-01T06:14:18;11.60;99.90
13998;DHT22;7074;51.508;7.018;2023-04-01T06:17:05;11.60;99.90
13998;DHT22;7074;51.508;7.018;2023-04-01T06:19:43;11.60;99.90
13998;DHT22;7074;51.508;7.018;2023-04-01T06:22:42;11.60;99.90
13998;DHT22;7074;51.508;7.018;2023-04-01T06:25:33;11.60;99.90
13998;DHT22;7074;51.508;7.018;2023-04-01T06:28:38;11.60;99.90
13998;DHT22;7074;51.508;7.018;2023-04-01T06:31:16;11.70;99.90
13998;DHT22;7074;51.508;7.018;2023-04-01T06:34:00;11.70;99.90
13998;DHT22;7074;51.508;7.018;2023-04-01T06:36:46;11.70;99.90
13998;DHT22;7074;51.508;7.018;2023-04-01T06:39:30;11.70;99.90
13998;DHT22;7074;51.508;7.018;2023-04-01T06:42:19;11.70;99.90
13998;DHT22;7074;51.508;7.018;2023-04-01T06:45:01;11.70;99.90
13998;DHT22;7074;51.508;7.018;2023-04-01T06:48:23;11.60;99.90
13998;DHT22;7074;51.508;7.018;2023-04-01T06:51:22;11.60;99.90
13998;DHT22;7074;51.508;7.018;2023-04-01T06:54:12;11.60;99.90
13998;DHT22;7074;51.508;7.018;2023-04-01T06:57:05;11.60;99.90
13998;DHT22;7074;51.508;7.018;2023-04-01T06:59:42;11.60;99.90
13998;DHT22;7074;51.508;7.018;2023-04-01T07:02:22;11.60;99.90
13998;DHT22;7074;51.508;7.018;2023-04-01T07:04:53;11.70;99.90
13998;DHT22;7074;51.508;7.018;2023-04-01T07:07:29;11.60;99.90
13998;DHT22;7074;51.508;7.018;2023-04-01T07:10:05;11.60;99.90
13998;DHT22;7074;51.508;7.018;2023-04-01T07:12:58;11.60;99.90
13998;DHT22;7074;51.508;7.018;2023-04-01T07:15:54;11.60;99.90
13998;DHT22;7074;51.508;7.018;2023-04-01T07:18:32;11.60;99.90
13998;DHT22;7074;51.508;7.018;2023-04-01T07:21:04;11.60;99.90
13998;DHT22;7074;51.508;7.018;2023-04-01T07:23:40;11.60;99.90
13998;DHT22;7074;51.508;7.018;2023-04-01T07:26:32;11.60;99.90
13998;DHT22;7074;51.508;7.018;2023-04-01T07:29:11;11.60;99.90
13998;DHT22;7074;51.508;7.018;2023-04-01T07:32:11;11.60;99.90
13998;DHT22;7074;51.508;7.018;2023-04-01T07:34:51;11.60;99.90
13998;DHT22;7074;51.508;7.018;2023-04-01T07:37:28;11.50;99.90
13998;DHT22;7074;51.508;7.018;2023-04-01T07:40:05;11.50;99.90
13998;DHT22;7074;51.508;7.018;2023-04-01T07:42:48;11.60;99.90
13998;DHT22;7074;51.508;7.018;2023-04-01T07:45:25;11.50;99.90
13998;DHT22;7074;51.508;7.018;2023-04-01T07:48:08;11.60;99.90
13998;DHT22;7074;51.508;7.018;2023-04-01T07:50:41;11.60;99.90
13998;DHT22;7074;51.508;7.018;2023-04-01T07:53:21;11.60;99.90
13998;DHT22;7074;51.508;7.018;2023-04-01T07:55:59;11.60;99.90
13998;DHT22;7074;51.508;7.018;2023-04-01T07:58:50;11.50;99.90
13998;DHT22;7074;51.508;7.018;2023-04-01T08:01:45;11.60;99.90
13998;DHT22;7074;51.508;7.018;2023-04-01T08:04:26;11.60;99.90
13998;DHT22;7074;51.508;7.018;2023-04-01T08:07:00;11.60;99.90
13998;DHT22;7074;51.508;7.018;2023-04-01T08:09:36;11.60;99.90
13998;DHT22;7074;51.508;7.018;2023-04-01T08:12:35;11.60;99.90
13998;DHT22;7074;51.508;7.018;2023-04-01T08:15:52;11.60;99.90
13998;DHT22;7074;51.508;7.018;2023-04-01T08:18:40;11.60;99.90
13998;DHT22;7074;51.508;7.018;2023-04-01T08:21:14;11.60;99.90
13998;DHT22;7074;51.508;7.018;2023-04-01T08:23:45;11.60;99.90
13998;DHT22;7074;51.508;7.018;2023-04-01T08:26:23;11.50;99.90
13998;DHT22;7074;51.508;7.018;2023-04-01T08:28:55;11.50;99.90
13998;DHT22;7074;51.508;7.018;2023-04-01T08:31:30;11.50;99.90
13998;DHT22;7074;51.508;7.018;2023-04-01T08:34:00;11.60;99.90
13998;DHT22;7074;51.508;7.018;2023-04-01T08:36:37;11.50;99.90
13998;DHT22;7074;51.508;7.018;2023-04-01T08:39:19;11.60;99.90
13998;DHT22;7074;51.508;7.018;2023-04-01T08:45:27;11.60;99.90
13998;DHT22;7074;51.508;7.018;2023-04-01T08:48:25;11.60;99.90
13998;DHT22;7074;51.508;7.018;2023-04-01T08:51:15;11.60;99.90
13998;DHT22;7074;51.508;7.018;2023-04-01T08:54:04;11.50;99.90
13998;DHT22;7074;51.508;7.018;2023-04-01T08:56:39;11.50;99.90
13998;DHT22;7074;51.508;7.018;2023-04-01T08:59:30;11.40;99.90
13998;DHT22;7074;51.508;7.018;2023-04-01T09:02:22;11.50;99.90
13998;DHT22;7074;51.508;7.018;2023-04-01T09:05:24;11.50;99.90
13998;DHT22;7074;51.508;7.018;2023-04-01T09:08:01;11.50;99.90
13998;DHT22;7074;51.508;7.018;2023-04-01T09:10:47;11.60;99.90
13998;DHT22;7074;51.508;7.018;2023-04-01T09:14:21;11.60;99.90
13998;DHT22;7074;51.508;7.018;2023-04-01T09:17:28;11.60;99.90
13998;DHT22;7074;51.508;7.018;2023-04-01T09:20:14;11.60;99.90
13998;DHT22;7074;51.508;7.018;2023-04-01T09:25:57;11.70;99.90
13998;DHT22;7074;51.508;7.018;2023-04-01T09:28:33;11.80;99.90
13998;DHT22;7074;51.508;7.018;2023-04-01T09:31:17;11.80;99.90
13998;DHT22;7074;51.508;7.018;2023-04-01T09:37:24;11.80;99.90
13998;DHT22;7074;51.508;7.018;2023-04-01T09:40:16;12.00;99.90
13998;DHT22;7074;51.508;7.018;2023-04-01T09:43:14;12.00;99.90
13998;DHT22;7074;51.508;7.018;2023-04-01T09:45:56;12.10;99.90
13998;DHT22;7074;51.508;7.018;2023-04-01T09:48:47;12.10;99.90
13998;DHT22;7074;51.508;7.018;2023-04-01T09:51:26;12.10;99.90
13998;DHT22;7074;51.508;7.018;2023-04-01T09:54:16;12.20;99.90
13998;DHT22;7074;51.508;7.018;2023-04-01T10:00:15;12.30;99.90
13998;DHT22;7074;51.508;7.018;2023-04-01T10:03:37;12.40;99.90
13998;DHT22;7074;51.508;7.018;2023-04-01T10:06:41;12.40;99.90
13998;DHT22;7074;51.508;7.018;2023-04-01T10:16:09;12.40;99.90
13998;DHT22;7074;51.508;7.018;2023-04-01T10:19:03;12.40;99.90
13998;DHT22;7074;51.508;7.018;2023-04-01T10:21:59;12.50;99.90
13998;DHT22;7074;51.508;7.018;2023-04-01T10:25:14;12.40;99.90
13998;DHT22;7074;51.508;7.018;2023-04-01T10:28:19;12.50;99.90
13998;DHT22;7074;51.508;7.018;2023-04-01T10:37:58;12.60;99.90
13998;DHT22;7074;51.508;7.018;2023-04-01T10:40:55;12.50;99.90
13998;DHT22;7074;51.508;7.018;2023-04-01T10:47:44;12.40;99.90
13998;DHT22;7074;51.508;7.018;2023-04-01T10:50:33;12.40;99.90
13998;DHT22;7074;51.508;7.018;2023-04-01T10:53:38;12.40;99.90
13998;DHT22;7074;51.508;7.018;2023-04-01T10:56:46;12.40;99.90
13998;DHT22;7074;51.508;7.018;2023-04-01T11:10:06;12.30;99.90
13998;DHT22;7074;51.508;7.018;2023-04-01T11:19:51;12.20;99.90
13998;DHT22;7074;51.508;7.018;2023-04-01T11:25:50;12.30;99.90
13998;DHT22;7074;51.508;7.018;2023-04-01T11:32:34;12.30;99.90
13998;DHT22;7074;51.508;7.018;2023-04-01T11:38:34;12.10;99.90
13998;DHT22;7074;51.508;7.018;2023-04-01T11:41:34;12.10;99.90
13998;DHT22;7074;51.508;7.018;2023-04-01T11:44:26;12.10;99.90
13998;DHT22;7074;51.508;7.018;2023-04-01T11:54:46;12.30;99.90
13998;DHT22;7074;51.508;7.018;2023-04-01T12:01:04;12.40;99.90
13998;DHT22;7074;51.508;7.018;2023-04-01T12:14:27;12.20;99.90
13998;DHT22;7074;51.508;7.018;2023-04-01T12:20:40;12.20;99.90
13998;DHT22;7074;51.508;7.018;2023-04-01T12:23:35;12.30;99.90
13998;DHT22;7074;51.508;7.018;2023-04-01T12:32:43;12.50;99.90
13998;DHT22;7074;51.508;7.018;2023-04-01T12:35:23;12.60;99.90
13998;DHT22;7074;51.508;7.018;2023-04-01T12:38:26;12.60;99.90
13998;DHT22;7074;51.508;7.018;2023-04-01T12:41:17;12.80;99.90
13998;DHT22;7074;51.508;7.018;2023-04-01T12:44:26;12.80;99.90
13998;DHT22;7074;51.508;7.018;2023-04-01T12:47:33;12.80;99.90
13998;DHT22;7074;51.508;7.018;2023-04-01T12:50:23;12.80;99.90
13998;DHT22;7074;51.508;7.018;2023-04-01T12:53:25;12.70;99.90
13998;DHT22;7074;51.508;7.018;2023-04-01T12:56:19;12.70;99.90
13998;DHT22;7074;51.508;7.018;2023-04-01T13:02:55;12.70;99.90
13998;DHT22;7074;51.508;7.018;2023-04-01T13:08:44;12.70;99.90
13998;DHT22;7074;51.508;7.018;2023-04-01T13:11:36;12.70;99.90
13998;DHT22;7074;51.508;7.018;2023-04-01T13:17:44;12.60;99.90
13998;DHT22;7074;51.508;7.018;2023-04-01T13:20:42;12.50;99.90
13998;DHT22;7074;51.508;7.018;2023-04-01T13:23:41;12.50;99.90
13998;DHT22;7074;51.508;7.018;2023-04-01T13:26:36;12.50;99.90
13998;DHT22;7074;51.508;7.018;2023-04-01T13:29:22;12.50;99.90
13998;DHT22;7074;51.508;7.018;2023-04-01T13:32:32;12.50;99.90
13998;DHT22;7074;51.508;7.018;2023-04-01T13:35:23;12.50;99.90
13998;DHT22;7074;51.508;7.018;2023-04-01T13:41:04;12.50;99.90
13998;DHT22;7074;51.508;7.018;2023-04-01T13:43:39;12.50;99.90
13998;DHT22;7074;51.508;7.018;2023-04-01T13:46:36;12.60;99.90
13998;DHT22;7074;51.508;7.018;2023-04-01T13:49:46;12.50;99.90
13998;DHT22;7074;51.508;7.018;2023-04-01T13:53:02;12.50;99.90
13998;DHT22;7074;51.508;7.018;2023-04-01T16:00:31;12.80;99.90
13998;DHT22;7074;51.508;7.018;2023-04-01T16:04:42;12.80;99.90
13998;DHT22;7074;51.508;7.018;2023-04-01T16:28:09;12.60;99.90
13998;DHT22;7074;51.508;7.018;2023-04-01T16:31:16;12.50;99.90
13998;DHT22;7074;51.508;7.018;2023-04-01T16:35:52;12.50;99.90
13998;DHT22;7074;51.508;7.018;2023-04-01T18:27:41;12.20;99.90
13998;DHT22;7074;51.508;7.018;2023-04-01T18:31:41;12.20;99.90
13998;DHT22;7074;51.508;7.018;2023-04-01T18:34:49;12.10;99.90
13998;DHT22;7074;51.508;7.018;2023-04-01T18:38:03;12.20;99.90
13998;DHT22;7074;51.508;7.018;2023-04-01T18:41:28;12.20;99.90
13998;DHT22;7074;51.508;7.018;2023-04-01T18:45:35;12.20;99.90
13998;DHT22;7074;51.508;7.018;2023-04-01T18:52:47;12.30;99.90
13998;DHT22;7074;51.508;7.018;2023-04-01T18:56:01;12.30;99.90
13998;DHT22;7074;51.508;7.018;2023-04-01T18:59:56;12.30;99.90
13998;DHT22;7074;51.508;7.018;2023-04-01T19:06:34;12.30;99.90
13998;DHT22;7074;51.508;7.018;2023-04-01T19:09:29;12.30;99.90
13998;DHT22;7074;51.508;7.018;2023-04-01T19:12:39;12.20;99.90
13998;DHT22;7074;51.508;7.018;2023-04-01T19:16:04;12.00;99.90
13998;DHT22;7074;51.508;7.018;2023-04-01T19:19:32;11.80;99.90
13998;DHT22;7074;51.508;7.018;2023-04-01T19:22:51;11.90;99.90
13998;DHT22;7074;51.508;7.018;2023-04-01T19:26:01;12.00;99.90
13998;DHT22;7074;51.508;7.018;2023-04-01T19:30:10;11.90;99.90
13998;DHT22;7074;51.508;7.018;2023-04-01T19:37:32;12.00;99.90
